sensor_id;sensor_type;location;lat;lon;timestamp;P1;durP1;ratioP1;P2;durP2;ratioP2
20034;SDS011;10178;48.034;9.800;2023-02-28T00:01:20;2.90;;;2.50;;
20034;SDS011;10178;48.034;9.800;2023-02-28T00:03:45;6.87;;;2.97;;
20034;SDS011;10178;48.034;9.800;2023-02-28T00:06:11;3.30;;;2.60;;
20034;SDS011;10178;48.034;9.800;2023-02-28T00:08:37;3.37;;;2.33;;
20034;SDS011;10178;48.034;9.800;2023-02-28T00:11:04;3.53;;;2.73;;
20034;SDS011;10178;48.034;9.800;2023-02-28T00:13:33;2.67;;;2.20;;
20034;SDS011;10178;48.034;9.800;2023-02-28T00:16:01;4.23;;;2.60;;
20034;SDS011;10178;48.034;9.800;2023-02-28T00:18:29;4.53;;;2.90;;
20034;SDS011;10178;48.034;9.800;2023-02-28T00:20:55;5.73;;;2.80;;
20034;SDS011;10178;48.034;9.800;2023-02-28T00:23:21;2.93;;;2.50;;
20034;SDS011;10178;48.034;9.800;2023-02-28T00:25:46;4.77;;;2.57;;
20034;SDS011;10178;48.034;9.800;2023-02-28T00:28:12;3.47;;;2.53;;
20034;SDS011;10178;48.034;9.800;2023-02-28T00:30:38;3.53;;;2.33;;
20034;SDS011;10178;48.034;9.800;2023-02-28T00:33:03;3.77;;;2.90;;
20034;SDS011;10178;48.034;9.800;2023-02-28T00:35:29;4.27;;;2.83;;
20034;SDS011;10178;48.034;9.800;2023-02-28T00:37:55;2.97;;;2.17;;
20034;SDS011;10178;48.034;9.800;2023-02-28T00:40:20;3.00;;;2.17;;
20034;SDS011;10178;48.034;9.800;2023-02-28T00:42:46;3.20;;;2.50;;
20034;SDS011;10178;48.034;9.800;2023-02-28T00:45:11;5.70;;;2.60;;
20034;SDS011;10178;48.034;9.800;2023-02-28T00:47:37;3.63;;;2.57;;
20034;SDS011;10178;48.034;9.800;2023-02-28T00:50:03;3.20;;;2.57;;
20034;SDS011;10178;48.034;9.800;2023-02-28T00:52:30;3.27;;;2.30;;
20034;SDS011;10178;48.034;9.800;2023-02-28T00:54:55;3.93;;;2.50;;
20034;SDS011;10178;48.034;9.800;2023-02-28T00:57:21;3.93;;;2.27;;
20034;SDS011;10178;48.034;9.800;2023-02-28T00:59:47;5.17;;;2.40;;
20034;SDS011;10178;48.034;9.800;2023-02-28T01:02:13;3.77;;;2.33;;
20034;SDS011;10178;48.034;9.800;2023-02-28T01:04:38;4.43;;;2.80;;
20034;SDS011;10178;48.034;9.800;2023-02-28T01:07:04;2.67;;;2.27;;
20034;SDS011;10178;48.034;9.800;2023-02-28T01:09:30;4.03;;;2.40;;
20034;SDS011;10178;48.034;9.800;2023-02-28T01:11:55;4.67;;;2.73;;
20034;SDS011;10178;48.034;9.800;2023-02-28T01:14:21;3.53;;;2.27;;
20034;SDS011;10178;48.034;9.800;2023-02-28T01:16:47;4.17;;;2.60;;
20034;SDS011;10178;48.034;9.800;2023-02-28T01:19:12;5.37;;;3.10;;
20034;SDS011;10178;48.034;9.800;2023-02-28T01:21:38;5.80;;;3.20;;
20034;SDS011;10178;48.034;9.800;2023-02-28T01:24:04;7.07;;;3.33;;
20034;SDS011;10178;48.034;9.800;2023-02-28T01:26:30;6.37;;;3.33;;
20034;SDS011;10178;48.034;9.800;2023-02-28T01:28:56;5.20;;;2.87;;
20034;SDS011;10178;48.034;9.800;2023-02-28T01:31:22;5.67;;;2.87;;
20034;SDS011;10178;48.034;9.800;2023-02-28T01:33:48;8.83;;;3.37;;
20034;SDS011;10178;48.034;9.800;2023-02-28T01:36:15;7.20;;;2.87;;
20034;SDS011;10178;48.034;9.800;2023-02-28T01:38:43;8.93;;;3.67;;
20034;SDS011;10178;48.034;9.800;2023-02-28T01:41:12;6.90;;;3.60;;
20034;SDS011;10178;48.034;9.800;2023-02-28T01:46:13;7.53;;;2.83;;
20034;SDS011;10178;48.034;9.800;2023-02-28T01:48:40;5.60;;;3.53;;
20034;SDS011;10178;48.034;9.800;2023-02-28T01:51:13;7.17;;;3.20;;
20034;SDS011;10178;48.034;9.800;2023-02-28T01:53:44;4.87;;;2.90;;
20034;SDS011;10178;48.034;9.800;2023-02-28T01:56:14;6.20;;;3.10;;
20034;SDS011;10178;48.034;9.800;2023-02-28T01:58:46;4.60;;;2.80;;
20034;SDS011;10178;48.034;9.800;2023-02-28T02:01:13;5.83;;;3.20;;
20034;SDS011;10178;48.034;9.800;2023-02-28T02:03:49;6.03;;;3.10;;
20034;SDS011;10178;48.034;9.800;2023-02-28T02:06:21;6.53;;;2.77;;
20034;SDS011;10178;48.034;9.800;2023-02-28T02:08:52;7.60;;;3.50;;
20034;SDS011;10178;48.034;9.800;2023-02-28T02:11:18;4.63;;;2.80;;
20034;SDS011;10178;48.034;9.800;2023-02-28T02:33:42;4.33;;;2.90;;
20034;SDS011;10178;48.034;9.800;2023-02-28T02:39:14;3.17;;;2.67;;
20034;SDS011;10178;48.034;9.800;2023-02-28T02:41:51;4.90;;;3.30;;
20034;SDS011;10178;48.034;9.800;2023-02-28T02:44:23;4.80;;;2.77;;
20034;SDS011;10178;48.034;9.800;2023-02-28T02:47:03;5.47;;;3.40;;
20034;SDS011;10178;48.034;9.800;2023-02-28T02:49:36;4.40;;;3.20;;
20034;SDS011;10178;48.034;9.800;2023-02-28T02:52:04;4.90;;;3.00;;
20034;SDS011;10178;48.034;9.800;2023-02-28T02:54:34;4.47;;;3.83;;
20034;SDS011;10178;48.034;9.800;2023-02-28T02:57:07;5.93;;;3.83;;
20034;SDS011;10178;48.034;9.800;2023-02-28T02:59:37;5.17;;;3.47;;
20034;SDS011;10178;48.034;9.800;2023-02-28T03:02:06;5.63;;;3.30;;
20034;SDS011;10178;48.034;9.800;2023-02-28T03:04:38;8.33;;;3.50;;
20034;SDS011;10178;48.034;9.800;2023-02-28T03:07:08;5.57;;;3.50;;
20034;SDS011;10178;48.034;9.800;2023-02-28T03:09:34;4.27;;;3.20;;
20034;SDS011;10178;48.034;9.800;2023-02-28T03:12:03;5.10;;;3.03;;
20034;SDS011;10178;48.034;9.800;2023-02-28T03:20:01;5.47;;;3.53;;
20034;SDS011;10178;48.034;9.800;2023-02-28T03:30:52;5.07;;;3.80;;
20034;SDS011;10178;48.034;9.800;2023-02-28T03:33:26;5.37;;;3.80;;
20034;SDS011;10178;48.034;9.800;2023-02-28T03:35:58;4.23;;;3.50;;
20034;SDS011;10178;48.034;9.800;2023-02-28T03:38:29;6.03;;;3.90;;
20034;SDS011;10178;48.034;9.800;2023-02-28T03:41:17;4.13;;;3.50;;
20034;SDS011;10178;48.034;9.800;2023-02-28T03:43:51;4.50;;;3.70;;
20034;SDS011;10178;48.034;9.800;2023-02-28T03:46:22;7.80;;;5.30;;
20034;SDS011;10178;48.034;9.800;2023-02-28T03:49:02;6.53;;;4.50;;
20034;SDS011;10178;48.034;9.800;2023-02-28T03:51:34;5.90;;;4.30;;
20034;SDS011;10178;48.034;9.800;2023-02-28T03:54:07;4.73;;;3.53;;
20034;SDS011;10178;48.034;9.800;2023-02-28T03:56:38;5.97;;;4.00;;
20034;SDS011;10178;48.034;9.800;2023-02-28T03:59:18;5.60;;;4.17;;
20034;SDS011;10178;48.034;9.800;2023-02-28T04:01:50;6.03;;;4.53;;
20034;SDS011;10178;48.034;9.800;2023-02-28T04:04:16;5.30;;;4.20;;
20034;SDS011;10178;48.034;9.800;2023-02-28T04:06:43;5.60;;;4.23;;
20034;SDS011;10178;48.034;9.800;2023-02-28T04:09:11;5.77;;;4.00;;
20034;SDS011;10178;48.034;9.800;2023-02-28T04:14:06;6.53;;;4.70;;
20034;SDS011;10178;48.034;9.800;2023-02-28T04:16:33;7.73;;;4.70;;
20034;SDS011;10178;48.034;9.800;2023-02-28T04:19:01;6.83;;;4.43;;
20034;SDS011;10178;48.034;9.800;2023-02-28T04:21:34;5.50;;;4.67;;
20034;SDS011;10178;48.034;9.800;2023-02-28T04:24:03;8.20;;;5.03;;
20034;SDS011;10178;48.034;9.800;2023-02-28T04:26:30;6.40;;;4.87;;
20034;SDS011;10178;48.034;9.800;2023-02-28T04:28:57;7.07;;;4.70;;
20034;SDS011;10178;48.034;9.800;2023-02-28T04:31:23;8.00;;;4.93;;
20034;SDS011;10178;48.034;9.800;2023-02-28T04:33:49;7.73;;;5.03;;
20034;SDS011;10178;48.034;9.800;2023-02-28T04:36:15;7.27;;;5.43;;
20034;SDS011;10178;48.034;9.800;2023-02-28T04:38:42;6.63;;;4.50;;
20034;SDS011;10178;48.034;9.800;2023-02-28T04:41:09;7.17;;;4.80;;
20034;SDS011;10178;48.034;9.800;2023-02-28T04:43:35;8.00;;;4.63;;
20034;SDS011;10178;48.034;9.800;2023-02-28T04:46:02;8.90;;;5.37;;
20034;SDS011;10178;48.034;9.800;2023-02-28T04:48:29;6.13;;;4.80;;
20034;SDS011;10178;48.034;9.800;2023-02-28T04:51:03;9.40;;;5.43;;
20034;SDS011;10178;48.034;9.800;2023-02-28T04:53:30;7.40;;;4.97;;
20034;SDS011;10178;48.034;9.800;2023-02-28T04:55:56;10.70;;;6.07;;
20034;SDS011;10178;48.034;9.800;2023-02-28T04:58:22;8.13;;;5.60;;
20034;SDS011;10178;48.034;9.800;2023-02-28T05:00:51;4.77;;;3.67;;
20034;SDS011;10178;48.034;9.800;2023-02-28T05:03:17;8.23;;;4.83;;
20034;SDS011;10178;48.034;9.800;2023-02-28T05:05:45;8.27;;;5.80;;
20034;SDS011;10178;48.034;9.800;2023-02-28T05:08:11;6.63;;;4.87;;
20034;SDS011;10178;48.034;9.800;2023-02-28T05:10:37;7.17;;;5.47;;
20034;SDS011;10178;48.034;9.800;2023-02-28T05:13:03;7.20;;;5.50;;
20034;SDS011;10178;48.034;9.800;2023-02-28T05:15:29;9.90;;;5.37;;
20034;SDS011;10178;48.034;9.800;2023-02-28T05:17:54;8.70;;;5.30;;
20034;SDS011;10178;48.034;9.800;2023-02-28T05:20:20;8.63;;;5.27;;
20034;SDS011;10178;48.034;9.800;2023-02-28T05:22:46;7.87;;;5.80;;
20034;SDS011;10178;48.034;9.800;2023-02-28T05:25:12;7.00;;;5.27;;
20034;SDS011;10178;48.034;9.800;2023-02-28T05:27:41;8.30;;;6.00;;
20034;SDS011;10178;48.034;9.800;2023-02-28T05:30:07;7.83;;;5.37;;
20034;SDS011;10178;48.034;9.800;2023-02-28T05:32:35;8.57;;;5.73;;
20034;SDS011;10178;48.034;9.800;2023-02-28T05:35:02;9.60;;;5.60;;
20034;SDS011;10178;48.034;9.800;2023-02-28T05:37:27;14.67;;;5.90;;
20034;SDS011;10178;48.034;9.800;2023-02-28T05:39:53;11.67;;;7.37;;
20034;SDS011;10178;48.034;9.800;2023-02-28T05:42:19;9.13;;;6.47;;
20034;SDS011;10178;48.034;9.800;2023-02-28T05:44:44;10.30;;;6.90;;
20034;SDS011;10178;48.034;9.800;2023-02-28T05:47:10;10.07;;;6.43;;
20034;SDS011;10178;48.034;9.800;2023-02-28T05:49:37;9.93;;;6.60;;
20034;SDS011;10178;48.034;9.800;2023-02-28T05:52:03;8.47;;;5.73;;
20034;SDS011;10178;48.034;9.800;2023-02-28T05:54:29;10.10;;;6.40;;
20034;SDS011;10178;48.034;9.800;2023-02-28T05:56:54;7.67;;;6.20;;
20034;SDS011;10178;48.034;9.800;2023-02-28T05:59:20;8.73;;;5.53;;
20034;SDS011;10178;48.034;9.800;2023-02-28T06:01:45;10.53;;;7.23;;
20034;SDS011;10178;48.034;9.800;2023-02-28T06:04:14;10.70;;;6.37;;
20034;SDS011;10178;48.034;9.800;2023-02-28T06:06:44;9.80;;;6.10;;
20034;SDS011;10178;48.034;9.800;2023-02-28T06:09:10;9.00;;;6.07;;
20034;SDS011;10178;48.034;9.800;2023-02-28T06:11:36;9.77;;;6.60;;
20034;SDS011;10178;48.034;9.800;2023-02-28T06:14:02;7.87;;;5.87;;
20034;SDS011;10178;48.034;9.800;2023-02-28T06:16:29;9.50;;;6.03;;
20034;SDS011;10178;48.034;9.800;2023-02-28T06:18:57;10.33;;;7.00;;
20034;SDS011;10178;48.034;9.800;2023-02-28T06:21:23;11.23;;;6.80;;
20034;SDS011;10178;48.034;9.800;2023-02-28T06:23:49;10.13;;;6.97;;
20034;SDS011;10178;48.034;9.800;2023-02-28T06:26:15;9.47;;;6.47;;
20034;SDS011;10178;48.034;9.800;2023-02-28T06:28:41;10.63;;;7.43;;
20034;SDS011;10178;48.034;9.800;2023-02-28T06:31:10;11.27;;;7.30;;
20034;SDS011;10178;48.034;9.800;2023-02-28T06:33:38;8.73;;;6.07;;
20034;SDS011;10178;48.034;9.800;2023-02-28T06:36:04;11.27;;;7.80;;
20034;SDS011;10178;48.034;9.800;2023-02-28T06:38:31;13.40;;;8.63;;
20034;SDS011;10178;48.034;9.800;2023-02-28T06:40:58;9.13;;;6.90;;
20034;SDS011;10178;48.034;9.800;2023-02-28T06:43:25;11.67;;;7.10;;
20034;SDS011;10178;48.034;9.800;2023-02-28T06:45:54;9.50;;;6.70;;
20034;SDS011;10178;48.034;9.800;2023-02-28T06:48:20;13.57;;;7.53;;
20034;SDS011;10178;48.034;9.800;2023-02-28T06:50:46;9.90;;;6.73;;
20034;SDS011;10178;48.034;9.800;2023-02-28T06:53:12;13.93;;;7.57;;
20034;SDS011;10178;48.034;9.800;2023-02-28T06:55:38;10.87;;;7.47;;
20034;SDS011;10178;48.034;9.800;2023-02-28T06:58:04;10.77;;;6.70;;
20034;SDS011;10178;48.034;9.800;2023-02-28T07:00:40;10.97;;;7.67;;
20034;SDS011;10178;48.034;9.800;2023-02-28T07:03:07;11.20;;;7.27;;
20034;SDS011;10178;48.034;9.800;2023-02-28T07:05:34;10.67;;;7.47;;
20034;SDS011;10178;48.034;9.800;2023-02-28T07:08:00;10.07;;;7.33;;
20034;SDS011;10178;48.034;9.800;2023-02-28T07:10:26;15.07;;;9.30;;
20034;SDS011;10178;48.034;9.800;2023-02-28T07:12:52;13.93;;;9.37;;
20034;SDS011;10178;48.034;9.800;2023-02-28T07:15:17;12.93;;;8.87;;
20034;SDS011;10178;48.034;9.800;2023-02-28T07:17:43;10.53;;;5.30;;
20034;SDS011;10178;48.034;9.800;2023-02-28T07:20:09;19.63;;;9.40;;
20034;SDS011;10178;48.034;9.800;2023-02-28T07:22:35;15.73;;;9.17;;
20034;SDS011;10178;48.034;9.800;2023-02-28T07:25:01;14.30;;;9.63;;
20034;SDS011;10178;48.034;9.800;2023-02-28T07:27:26;11.70;;;8.47;;
20034;SDS011;10178;48.034;9.800;2023-02-28T07:29:52;18.47;;;9.67;;
20034;SDS011;10178;48.034;9.800;2023-02-28T07:32:20;12.63;;;8.07;;
20034;SDS011;10178;48.034;9.800;2023-02-28T07:34:45;15.10;;;8.87;;
20034;SDS011;10178;48.034;9.800;2023-02-28T07:37:11;13.57;;;8.17;;
20034;SDS011;10178;48.034;9.800;2023-02-28T07:39:36;12.60;;;8.43;;
20034;SDS011;10178;48.034;9.800;2023-02-28T07:42:05;11.60;;;8.10;;
20034;SDS011;10178;48.034;9.800;2023-02-28T07:44:34;13.17;;;9.60;;
20034;SDS011;10178;48.034;9.800;2023-02-28T07:47:00;12.70;;;8.50;;
20034;SDS011;10178;48.034;9.800;2023-02-28T07:49:26;13.27;;;8.97;;
20034;SDS011;10178;48.034;9.800;2023-02-28T07:51:51;11.20;;;7.90;;
20034;SDS011;10178;48.034;9.800;2023-02-28T07:54:17;12.43;;;8.40;;
20034;SDS011;10178;48.034;9.800;2023-02-28T07:56:42;10.57;;;7.40;;
20034;SDS011;10178;48.034;9.800;2023-02-28T07:59:08;12.97;;;8.03;;
20034;SDS011;10178;48.034;9.800;2023-02-28T08:01:34;12.40;;;8.77;;
20034;SDS011;10178;48.034;9.800;2023-02-28T08:03:59;11.47;;;7.73;;
20034;SDS011;10178;48.034;9.800;2023-02-28T08:06:25;11.63;;;8.03;;
20034;SDS011;10178;48.034;9.800;2023-02-28T08:08:51;12.67;;;9.23;;
20034;SDS011;10178;48.034;9.800;2023-02-28T08:11:18;11.43;;;7.97;;
20034;SDS011;10178;48.034;9.800;2023-02-28T08:13:44;12.57;;;8.37;;
20034;SDS011;10178;48.034;9.800;2023-02-28T08:16:10;12.47;;;9.17;;
20034;SDS011;10178;48.034;9.800;2023-02-28T08:18:42;15.10;;;9.47;;
20034;SDS011;10178;48.034;9.800;2023-02-28T08:21:08;15.47;;;9.70;;
20034;SDS011;10178;48.034;9.800;2023-02-28T08:23:34;18.43;;;10.20;;
20034;SDS011;10178;48.034;9.800;2023-02-28T08:26:00;14.43;;;10.70;;
20034;SDS011;10178;48.034;9.800;2023-02-28T08:28:26;15.93;;;10.87;;
20034;SDS011;10178;48.034;9.800;2023-02-28T08:30:52;13.13;;;8.70;;
20034;SDS011;10178;48.034;9.800;2023-02-28T08:33:18;12.87;;;9.17;;
20034;SDS011;10178;48.034;9.800;2023-02-28T08:35:44;14.77;;;10.00;;
20034;SDS011;10178;48.034;9.800;2023-02-28T08:38:09;17.37;;;11.17;;
20034;SDS011;10178;48.034;9.800;2023-02-28T08:40:35;14.60;;;9.90;;
20034;SDS011;10178;48.034;9.800;2023-02-28T08:43:01;15.43;;;9.60;;
20034;SDS011;10178;48.034;9.800;2023-02-28T08:45:26;15.63;;;10.47;;
20034;SDS011;10178;48.034;9.800;2023-02-28T08:47:53;14.47;;;9.57;;
20034;SDS011;10178;48.034;9.800;2023-02-28T08:50:20;16.07;;;10.27;;
20034;SDS011;10178;48.034;9.800;2023-02-28T08:52:47;14.50;;;8.87;;
20034;SDS011;10178;48.034;9.800;2023-02-28T08:55:12;13.83;;;10.67;;
20034;SDS011;10178;48.034;9.800;2023-02-28T08:57:38;14.10;;;9.50;;
20034;SDS011;10178;48.034;9.800;2023-02-28T09:00:04;13.27;;;9.53;;
20034;SDS011;10178;48.034;9.800;2023-02-28T09:02:30;11.93;;;8.23;;
20034;SDS011;10178;48.034;9.800;2023-02-28T09:04:56;13.17;;;8.83;;
20034;SDS011;10178;48.034;9.800;2023-02-28T09:07:23;11.63;;;8.03;;
20034;SDS011;10178;48.034;9.800;2023-02-28T09:09:49;13.40;;;9.53;;
20034;SDS011;10178;48.034;9.800;2023-02-28T09:12:22;11.77;;;8.57;;
20034;SDS011;10178;48.034;9.800;2023-02-28T09:14:57;10.77;;;7.67;;
20034;SDS011;10178;48.034;9.800;2023-02-28T09:17:22;12.10;;;8.07;;
20034;SDS011;10178;48.034;9.800;2023-02-28T09:19:48;13.43;;;8.70;;
20034;SDS011;10178;48.034;9.800;2023-02-28T09:22:14;12.57;;;8.60;;
20034;SDS011;10178;48.034;9.800;2023-02-28T09:24:40;14.93;;;9.93;;
20034;SDS011;10178;48.034;9.800;2023-02-28T09:27:06;15.03;;;9.37;;
20034;SDS011;10178;48.034;9.800;2023-02-28T09:29:33;15.33;;;10.40;;
20034;SDS011;10178;48.034;9.800;2023-02-28T09:31:59;14.00;;;9.37;;
20034;SDS011;10178;48.034;9.800;2023-02-28T09:34:26;10.87;;;8.60;;
20034;SDS011;10178;48.034;9.800;2023-02-28T09:36:53;14.03;;;9.53;;
20034;SDS011;10178;48.034;9.800;2023-02-28T09:39:20;15.43;;;11.63;;
20034;SDS011;10178;48.034;9.800;2023-02-28T09:41:47;17.47;;;10.60;;
20034;SDS011;10178;48.034;9.800;2023-02-28T09:44:26;13.43;;;8.93;;
20034;SDS011;10178;48.034;9.800;2023-02-28T09:47:05;16.73;;;10.47;;
20034;SDS011;10178;48.034;9.800;2023-02-28T09:49:51;13.60;;;9.43;;
20034;SDS011;10178;48.034;9.800;2023-02-28T09:52:18;16.87;;;11.00;;
20034;SDS011;10178;48.034;9.800;2023-02-28T09:54:46;14.73;;;9.67;;
20034;SDS011;10178;48.034;9.800;2023-02-28T09:57:18;13.80;;;8.87;;
20034;SDS011;10178;48.034;9.800;2023-02-28T10:08:43;14.07;;;9.50;;
20034;SDS011;10178;48.034;9.800;2023-02-28T10:11:15;14.27;;;9.53;;
20034;SDS011;10178;48.034;9.800;2023-02-28T10:16:43;16.30;;;9.37;;
20034;SDS011;10178;48.034;9.800;2023-02-28T10:19:35;14.77;;;9.77;;
20034;SDS011;10178;48.034;9.800;2023-02-28T10:22:19;15.57;;;10.43;;
20034;SDS011;10178;48.034;9.800;2023-02-28T10:25:15;12.80;;;9.00;;
20034;SDS011;10178;48.034;9.800;2023-02-28T10:27:50;16.40;;;10.73;;
20034;SDS011;10178;48.034;9.800;2023-02-28T10:30:19;13.93;;;9.83;;
20034;SDS011;10178;48.034;9.800;2023-02-28T10:32:47;13.57;;;9.27;;
20034;SDS011;10178;48.034;9.800;2023-02-28T10:35:16;14.63;;;10.27;;
20034;SDS011;10178;48.034;9.800;2023-02-28T10:37:45;17.07;;;10.70;;
20034;SDS011;10178;48.034;9.800;2023-02-28T10:43:21;22.47;;;13.87;;
20034;SDS011;10178;48.034;9.800;2023-02-28T10:45:39;20.13;;;12.43;;
20034;SDS011;10178;48.034;9.800;2023-02-28T10:48:39;20.30;;;12.37;;
20034;SDS011;10178;48.034;9.800;2023-02-28T10:51:11;21.50;;;12.73;;
20034;SDS011;10178;48.034;9.800;2023-02-28T10:53:59;27.50;;;11.87;;
20034;SDS011;10178;48.034;9.800;2023-02-28T10:56:24;18.93;;;11.90;;
20034;SDS011;10178;48.034;9.800;2023-02-28T10:59:22;18.83;;;12.53;;
20034;SDS011;10178;48.034;9.800;2023-02-28T11:01:53;19.73;;;12.40;;
20034;SDS011;10178;48.034;9.800;2023-02-28T11:04:20;19.97;;;11.93;;
20034;SDS011;10178;48.034;9.800;2023-02-28T11:07:01;20.60;;;11.63;;
20034;SDS011;10178;48.034;9.800;2023-02-28T11:09:38;19.63;;;11.30;;
20034;SDS011;10178;48.034;9.800;2023-02-28T11:12:06;22.33;;;12.60;;
20034;SDS011;10178;48.034;9.800;2023-02-28T11:14:40;18.43;;;12.40;;
20034;SDS011;10178;48.034;9.800;2023-02-28T11:17:14;17.53;;;11.40;;
20034;SDS011;10178;48.034;9.800;2023-02-28T11:19:52;20.33;;;12.63;;
20034;SDS011;10178;48.034;9.800;2023-02-28T11:22:24;19.57;;;12.57;;
20034;SDS011;10178;48.034;9.800;2023-02-28T11:24:53;17.93;;;11.70;;
20034;SDS011;10178;48.034;9.800;2023-02-28T11:29:51;17.63;;;12.27;;
20034;SDS011;10178;48.034;9.800;2023-02-28T11:32:18;18.33;;;11.00;;
20034;SDS011;10178;48.034;9.800;2023-02-28T11:34:46;16.17;;;10.67;;
20034;SDS011;10178;48.034;9.800;2023-02-28T11:37:25;17.03;;;11.30;;
20034;SDS011;10178;48.034;9.800;2023-02-28T11:39:53;18.80;;;12.00;;
20034;SDS011;10178;48.034;9.800;2023-02-28T11:42:26;17.90;;;11.83;;
20034;SDS011;10178;48.034;9.800;2023-02-28T11:47:47;17.90;;;11.63;;
20034;SDS011;10178;48.034;9.800;2023-02-28T11:52:57;17.80;;;13.07;;
20034;SDS011;10178;48.034;9.800;2023-02-28T12:01:15;15.97;;;10.13;;
20034;SDS011;10178;48.034;9.800;2023-02-28T12:03:54;17.97;;;11.03;;
20034;SDS011;10178;48.034;9.800;2023-02-28T12:15:03;17.47;;;11.17;;
20034;SDS011;10178;48.034;9.800;2023-02-28T12:18:13;18.73;;;12.23;;
20034;SDS011;10178;48.034;9.800;2023-02-28T12:26:45;20.63;;;13.00;;
20034;SDS011;10178;48.034;9.800;2023-02-28T12:31:52;18.97;;;12.13;;
20034;SDS011;10178;48.034;9.800;2023-02-28T12:34:37;17.20;;;12.33;;
20034;SDS011;10178;48.034;9.800;2023-02-28T12:37:14;18.77;;;11.83;;
20034;SDS011;10178;48.034;9.800;2023-02-28T12:39:45;23.37;;;12.40;;
20034;SDS011;10178;48.034;9.800;2023-02-28T12:42:17;17.07;;;12.23;;
20034;SDS011;10178;48.034;9.800;2023-02-28T12:47:23;18.77;;;13.03;;
20034;SDS011;10178;48.034;9.800;2023-02-28T12:49:50;21.53;;;13.70;;
20034;SDS011;10178;48.034;9.800;2023-02-28T12:53:08;20.50;;;12.63;;
20034;SDS011;10178;48.034;9.800;2023-02-28T12:55:27;16.70;;;11.40;;
20034;SDS011;10178;48.034;9.800;2023-02-28T12:58:13;19.10;;;12.60;;
20034;SDS011;10178;48.034;9.800;2023-02-28T13:10:02;19.53;;;13.27;;
20034;SDS011;10178;48.034;9.800;2023-02-28T13:12:31;18.67;;;12.80;;
20034;SDS011;10178;48.034;9.800;2023-02-28T13:15:02;20.43;;;13.40;;
20034;SDS011;10178;48.034;9.800;2023-02-28T13:17:37;17.10;;;11.67;;
20034;SDS011;10178;48.034;9.800;2023-02-28T13:20:13;19.73;;;13.93;;
20034;SDS011;10178;48.034;9.800;2023-02-28T13:22:43;20.07;;;12.80;;
20034;SDS011;10178;48.034;9.800;2023-02-28T13:27:54;21.17;;;14.20;;
20034;SDS011;10178;48.034;9.800;2023-02-28T13:38:42;17.73;;;11.27;;
20034;SDS011;10178;48.034;9.800;2023-02-28T13:44:10;19.40;;;12.43;;
20034;SDS011;10178;48.034;9.800;2023-02-28T14:02:48;19.67;;;13.60;;
20034;SDS011;10178;48.034;9.800;2023-02-28T14:05:28;20.63;;;13.27;;
20034;SDS011;10178;48.034;9.800;2023-02-28T14:07:58;20.83;;;14.50;;
20034;SDS011;10178;48.034;9.800;2023-02-28T14:10:30;19.97;;;12.47;;
20034;SDS011;10178;48.034;9.800;2023-02-28T14:20:48;19.47;;;11.70;;
20034;SDS011;10178;48.034;9.800;2023-02-28T14:26:13;19.73;;;13.37;;
20034;SDS011;10178;48.034;9.800;2023-02-28T14:29:27;20.37;;;13.77;;
20034;SDS011;10178;48.034;9.800;2023-02-28T14:32:13;20.47;;;13.83;;
20034;SDS011;10178;48.034;9.800;2023-02-28T14:35:12;22.67;;;14.17;;
20034;SDS011;10178;48.034;9.800;2023-02-28T14:37:51;19.53;;;13.77;;
20034;SDS011;10178;48.034;9.800;2023-02-28T14:40:25;18.53;;;13.63;;
20034;SDS011;10178;48.034;9.800;2023-02-28T14:43:16;19.87;;;13.13;;
20034;SDS011;10178;48.034;9.800;2023-02-28T14:45:57;21.57;;;14.40;;
20034;SDS011;10178;48.034;9.800;2023-02-28T14:48:26;21.93;;;14.93;;
20034;SDS011;10178;48.034;9.800;2023-02-28T14:50:57;21.33;;;13.90;;
20034;SDS011;10178;48.034;9.800;2023-02-28T14:53:25;17.30;;;12.47;;
20034;SDS011;10178;48.034;9.800;2023-02-28T14:55:54;19.27;;;13.37;;
20034;SDS011;10178;48.034;9.800;2023-02-28T14:58:27;19.70;;;12.97;;
20034;SDS011;10178;48.034;9.800;2023-02-28T15:00:56;24.53;;;13.23;;
20034;SDS011;10178;48.034;9.800;2023-02-28T15:03:34;22.27;;;15.40;;
20034;SDS011;10178;48.034;9.800;2023-02-28T15:06:12;18.33;;;12.53;;
20034;SDS011;10178;48.034;9.800;2023-02-28T15:08:43;19.30;;;12.83;;
20034;SDS011;10178;48.034;9.800;2023-02-28T15:13:43;18.93;;;12.47;;
20034;SDS011;10178;48.034;9.800;2023-02-28T15:16:14;23.57;;;12.43;;
20034;SDS011;10178;48.034;9.800;2023-02-28T15:19:22;19.47;;;12.97;;
20034;SDS011;10178;48.034;9.800;2023-02-28T15:21:44;16.77;;;12.23;;
20034;SDS011;10178;48.034;9.800;2023-02-28T15:26:58;18.67;;;13.60;;
20034;SDS011;10178;48.034;9.800;2023-02-28T15:29:28;21.73;;;14.20;;
20034;SDS011;10178;48.034;9.800;2023-02-28T15:31:56;18.70;;;12.73;;
20034;SDS011;10178;48.034;9.800;2023-02-28T15:39:55;20.50;;;12.67;;
20034;SDS011;10178;48.034;9.800;2023-02-28T15:42:22;21.80;;;13.50;;
20034;SDS011;10178;48.034;9.800;2023-02-28T15:44:53;20.93;;;12.77;;
20034;SDS011;10178;48.034;9.800;2023-02-28T15:47:20;18.40;;;12.07;;
20034;SDS011;10178;48.034;9.800;2023-02-28T15:50:13;14.90;;;11.67;;
20034;SDS011;10178;48.034;9.800;2023-02-28T15:53:12;17.60;;;11.57;;
20034;SDS011;10178;48.034;9.800;2023-02-28T15:56:14;16.27;;;11.50;;
20034;SDS011;10178;48.034;9.800;2023-02-28T15:59:36;19.17;;;13.03;;
20034;SDS011;10178;48.034;9.800;2023-02-28T16:02:22;16.97;;;11.33;;
20034;SDS011;10178;48.034;9.800;2023-02-28T16:05:31;16.07;;;10.17;;
20034;SDS011;10178;48.034;9.800;2023-02-28T16:08:51;13.53;;;10.40;;
20034;SDS011;10178;48.034;9.800;2023-02-28T16:12:39;15.33;;;10.53;;
20034;SDS011;10178;48.034;9.800;2023-02-28T16:15:07;14.87;;;10.00;;
20034;SDS011;10178;48.034;9.800;2023-02-28T16:17:41;12.87;;;9.40;;
20034;SDS011;10178;48.034;9.800;2023-02-28T16:20:14;14.43;;;9.63;;
20034;SDS011;10178;48.034;9.800;2023-02-28T16:22:45;14.77;;;10.47;;
20034;SDS011;10178;48.034;9.800;2023-02-28T16:25:12;12.27;;;9.40;;
20034;SDS011;10178;48.034;9.800;2023-02-28T16:30:45;13.13;;;9.70;;
20034;SDS011;10178;48.034;9.800;2023-02-28T16:33:12;14.93;;;9.10;;
20034;SDS011;10178;48.034;9.800;2023-02-28T16:35:37;13.88;;;9.35;;
20034;SDS011;10178;48.034;9.800;2023-02-28T16:38:03;17.63;;;11.17;;
20034;SDS011;10178;48.034;9.800;2023-02-28T16:40:29;12.30;;;9.00;;
20034;SDS011;10178;48.034;9.800;2023-02-28T16:42:59;13.17;;;8.93;;
20034;SDS011;10178;48.034;9.800;2023-02-28T16:45:28;12.70;;;9.03;;
20034;SDS011;10178;48.034;9.800;2023-02-28T16:47:54;12.15;;;8.77;;
20034;SDS011;10178;48.034;9.800;2023-02-28T16:50:21;13.00;;;9.00;;
20034;SDS011;10178;48.034;9.800;2023-02-28T16:52:49;11.32;;;8.98;;
20034;SDS011;10178;48.034;9.800;2023-02-28T16:55:17;12.63;;;8.90;;
20034;SDS011;10178;48.034;9.800;2023-02-28T16:57:50;10.83;;;8.73;;
20034;SDS011;10178;48.034;9.800;2023-02-28T17:00:18;12.57;;;9.07;;
20034;SDS011;10178;48.034;9.800;2023-02-28T17:02:44;11.87;;;9.13;;
20034;SDS011;10178;48.034;9.800;2023-02-28T17:05:13;11.73;;;8.40;;
20034;SDS011;10178;48.034;9.800;2023-02-28T17:07:40;15.63;;;9.87;;
20034;SDS011;10178;48.034;9.800;2023-02-28T17:10:14;12.07;;;8.60;;
20034;SDS011;10178;48.034;9.800;2023-02-28T17:12:45;13.30;;;8.60;;
20034;SDS011;10178;48.034;9.800;2023-02-28T17:15:12;12.18;;;9.05;;
20034;SDS011;10178;48.034;9.800;2023-02-28T17:17:40;16.55;;;8.73;;
20034;SDS011;10178;48.034;9.800;2023-02-28T17:20:06;14.73;;;9.07;;
20034;SDS011;10178;48.034;9.800;2023-02-28T17:22:37;12.00;;;8.45;;
20034;SDS011;10178;48.034;9.800;2023-02-28T17:25:02;14.77;;;8.67;;
20034;SDS011;10178;48.034;9.800;2023-02-28T17:27:28;11.83;;;8.33;;
20034;SDS011;10178;48.034;9.800;2023-02-28T17:29:54;10.70;;;8.15;;